sensor_id;sensor_type;location;lat;lon;timestamp;P1;durP1;ratioP1;P2;durP2;ratioP2
54823;SDS011;40724;53.196;5.980;2023-03-16T00:02:09;4.45;;;2.75;;
54823;SDS011;40724;53.196;5.980;2023-03-16T00:04:35;4.72;;;2.80;;
54823;SDS011;40724;53.196;5.980;2023-03-16T00:07:05;7.05;;;3.10;;
54823;SDS011;40724;53.196;5.980;2023-03-16T00:09:32;7.00;;;3.05;;
54823;SDS011;40724;53.196;5.980;2023-03-16T00:11:58;4.28;;;2.47;;
54823;SDS011;40724;53.196;5.980;2023-03-16T00:14:27;5.75;;;3.60;;
54823;SDS011;40724;53.196;5.980;2023-03-16T00:16:53;5.55;;;3.10;;
54823;SDS011;40724;53.196;5.980;2023-03-16T00:19:20;9.30;;;3.75;;
54823;SDS011;40724;53.196;5.980;2023-03-16T00:21:49;4.97;;;2.67;;
54823;SDS011;40724;53.196;5.980;2023-03-16T00:24:16;6.07;;;3.00;;
54823;SDS011;40724;53.196;5.980;2023-03-16T00:26:43;10.60;;;4.40;;
54823;SDS011;40724;53.196;5.980;2023-03-16T00:29:09;7.38;;;2.60;;
54823;SDS011;40724;53.196;5.980;2023-03-16T00:31:36;5.22;;;2.40;;
54823;SDS011;40724;53.196;5.980;2023-03-16T00:34:02;4.68;;;2.60;;
54823;SDS011;40724;53.196;5.980;2023-03-16T00:36:28;7.35;;;3.10;;
54823;SDS011;40724;53.196;5.980;2023-03-16T00:38:58;7.63;;;3.80;;
54823;SDS011;40724;53.196;5.980;2023-03-16T00:41:24;5.75;;;3.05;;
54823;SDS011;40724;53.196;5.980;2023-03-16T00:43:50;4.38;;;2.95;;
54823;SDS011;40724;53.196;5.980;2023-03-16T00:46:17;4.45;;;2.80;;
54823;SDS011;40724;53.196;5.980;2023-03-16T00:48:44;7.38;;;3.03;;
54823;SDS011;40724;53.196;5.980;2023-03-16T00:51:15;5.85;;;3.13;;
54823;SDS011;40724;53.196;5.980;2023-03-16T00:53:42;5.80;;;2.72;;
54823;SDS011;40724;53.196;5.980;2023-03-16T00:56:09;5.88;;;2.97;;
54823;SDS011;40724;53.196;5.980;2023-03-16T00:58:36;5.93;;;3.38;;
54823;SDS011;40724;53.196;5.980;2023-03-16T01:01:06;8.20;;;3.28;;
54823;SDS011;40724;53.196;5.980;2023-03-16T01:03:33;10.35;;;3.42;;
54823;SDS011;40724;53.196;5.980;2023-03-16T01:06:03;5.93;;;2.80;;
54823;SDS011;40724;53.196;5.980;2023-03-16T01:08:30;7.93;;;3.92;;
54823;SDS011;40724;53.196;5.980;2023-03-16T01:11:01;8.68;;;3.47;;
54823;SDS011;40724;53.196;5.980;2023-03-16T01:13:27;3.58;;;2.72;;
54823;SDS011;40724;53.196;5.980;2023-03-16T01:15:53;4.55;;;3.13;;
54823;SDS011;40724;53.196;5.980;2023-03-16T01:18:19;6.90;;;3.30;;
54823;SDS011;40724;53.196;5.980;2023-03-16T01:20:46;5.97;;;2.88;;
54823;SDS011;40724;53.196;5.980;2023-03-16T01:23:15;7.32;;;3.28;;
54823;SDS011;40724;53.196;5.980;2023-03-16T01:25:42;6.45;;;3.90;;
54823;SDS011;40724;53.196;5.980;2023-03-16T01:28:08;5.85;;;3.72;;
54823;SDS011;40724;53.196;5.980;2023-03-16T01:30:34;5.72;;;3.50;;
54823;SDS011;40724;53.196;5.980;2023-03-16T01:33:01;5.60;;;3.42;;
54823;SDS011;40724;53.196;5.980;2023-03-16T01:35:27;5.22;;;3.10;;
54823;SDS011;40724;53.196;5.980;2023-03-16T01:37:53;5.47;;;3.17;;
54823;SDS011;40724;53.196;5.980;2023-03-16T01:40:20;6.07;;;3.55;;
54823;SDS011;40724;53.196;5.980;2023-03-16T01:42:47;7.05;;;3.15;;
54823;SDS011;40724;53.196;5.980;2023-03-16T01:47:58;7.65;;;4.03;;
54823;SDS011;40724;53.196;5.980;2023-03-16T01:50:24;5.10;;;3.25;;
54823;SDS011;40724;53.196;5.980;2023-03-16T01:52:51;6.15;;;3.17;;
54823;SDS011;40724;53.196;5.980;2023-03-16T01:55:17;6.30;;;3.45;;
54823;SDS011;40724;53.196;5.980;2023-03-16T01:57:44;5.72;;;3.40;;
54823;SDS011;40724;53.196;5.980;2023-03-16T02:00:12;6.95;;;3.90;;
54823;SDS011;40724;53.196;5.980;2023-03-16T02:02:51;5.25;;;3.63;;
54823;SDS011;40724;53.196;5.980;2023-03-16T02:05:22;5.90;;;3.65;;
54823;SDS011;40724;53.196;5.980;2023-03-16T02:07:50;5.45;;;2.67;;
54823;SDS011;40724;53.196;5.980;2023-03-16T02:10:17;4.70;;;3.25;;
54823;SDS011;40724;53.196;5.980;2023-03-16T02:12:43;5.05;;;3.00;;
54823;SDS011;40724;53.196;5.980;2023-03-16T02:15:10;5.53;;;3.72;;
54823;SDS011;40724;53.196;5.980;2023-03-16T02:17:38;7.05;;;4.18;;
54823;SDS011;40724;53.196;5.980;2023-03-16T02:22:40;6.68;;;3.53;;
54823;SDS011;40724;53.196;5.980;2023-03-16T02:25:07;4.70;;;3.47;;
54823;SDS011;40724;53.196;5.980;2023-03-16T02:32:36;4.63;;;3.35;;
54823;SDS011;40724;53.196;5.980;2023-03-16T02:35:02;7.72;;;3.45;;
54823;SDS011;40724;53.196;5.980;2023-03-16T02:37:29;6.35;;;3.08;;
54823;SDS011;40724;53.196;5.980;2023-03-16T02:39:58;6.63;;;3.60;;
54823;SDS011;40724;53.196;5.980;2023-03-16T02:42:24;7.03;;;3.30;;
54823;SDS011;40724;53.196;5.980;2023-03-16T02:44:53;5.78;;;3.75;;
54823;SDS011;40724;53.196;5.980;2023-03-16T02:47:26;5.90;;;3.38;;
54823;SDS011;40724;53.196;5.980;2023-03-16T02:52:19;7.65;;;3.78;;
54823;SDS011;40724;53.196;5.980;2023-03-16T02:54:45;5.97;;;3.50;;
54823;SDS011;40724;53.196;5.980;2023-03-16T02:57:11;6.53;;;3.45;;
54823;SDS011;40724;53.196;5.980;2023-03-16T02:59:38;5.68;;;3.05;;
54823;SDS011;40724;53.196;5.980;2023-03-16T03:02:04;6.18;;;3.38;;
54823;SDS011;40724;53.196;5.980;2023-03-16T03:04:31;4.82;;;3.25;;
54823;SDS011;40724;53.196;5.980;2023-03-16T03:06:57;5.07;;;3.72;;
54823;SDS011;40724;53.196;5.980;2023-03-16T03:09:29;5.40;;;3.78;;
54823;SDS011;40724;53.196;5.980;2023-03-16T03:11:56;6.38;;;3.78;;
54823;SDS011;40724;53.196;5.980;2023-03-16T03:14:22;5.57;;;2.95;;
54823;SDS011;40724;53.196;5.980;2023-03-16T03:16:49;6.32;;;3.17;;
54823;SDS011;40724;53.196;5.980;2023-03-16T03:19:16;6.50;;;4.65;;
54823;SDS011;40724;53.196;5.980;2023-03-16T03:21:43;5.45;;;3.72;;
54823;SDS011;40724;53.196;5.980;2023-03-16T03:24:09;7.60;;;3.97;;
54823;SDS011;40724;53.196;5.980;2023-03-16T03:26:35;6.95;;;3.83;;
54823;SDS011;40724;53.196;5.980;2023-03-16T03:29:02;5.93;;;3.45;;
54823;SDS011;40724;53.196;5.980;2023-03-16T03:31:28;6.85;;;4.40;;
54823;SDS011;40724;53.196;5.980;2023-03-16T03:33:55;4.82;;;3.58;;
54823;SDS011;40724;53.196;5.980;2023-03-16T03:36:21;7.63;;;3.53;;
54823;SDS011;40724;53.196;5.980;2023-03-16T03:38:47;9.05;;;3.60;;
54823;SDS011;40724;53.196;5.980;2023-03-16T03:41:18;6.53;;;3.67;;
54823;SDS011;40724;53.196;5.980;2023-03-16T03:43:46;6.80;;;4.13;;
54823;SDS011;40724;53.196;5.980;2023-03-16T03:46:12;10.48;;;4.05;;
54823;SDS011;40724;53.196;5.980;2023-03-16T03:48:38;5.30;;;3.45;;
54823;SDS011;40724;53.196;5.980;2023-03-16T03:51:05;6.85;;;4.05;;
54823;SDS011;40724;53.196;5.980;2023-03-16T03:53:31;7.70;;;3.88;;
54823;SDS011;40724;53.196;5.980;2023-03-16T03:55:57;7.47;;;4.15;;
54823;SDS011;40724;53.196;5.980;2023-03-16T03:58:23;6.45;;;3.90;;
54823;SDS011;40724;53.196;5.980;2023-03-16T04:00:50;8.23;;;4.55;;
54823;SDS011;40724;53.196;5.980;2023-03-16T04:03:16;6.03;;;3.70;;
54823;SDS011;40724;53.196;5.980;2023-03-16T04:05:42;5.93;;;4.07;;
54823;SDS011;40724;53.196;5.980;2023-03-16T04:08:08;6.82;;;4.07;;
54823;SDS011;40724;53.196;5.980;2023-03-16T04:10:35;6.53;;;4.25;;
54823;SDS011;40724;53.196;5.980;2023-03-16T04:13:01;4.60;;;3.63;;
54823;SDS011;40724;53.196;5.980;2023-03-16T04:15:28;6.07;;;4.38;;
54823;SDS011;40724;53.196;5.980;2023-03-16T04:17:57;5.43;;;4.00;;
54823;SDS011;40724;53.196;5.980;2023-03-16T04:20:23;10.63;;;4.43;;
54823;SDS011;40724;53.196;5.980;2023-03-16T04:22:49;4.55;;;3.78;;
54823;SDS011;40724;53.196;5.980;2023-03-16T04:25:22;6.57;;;4.38;;
54823;SDS011;40724;53.196;5.980;2023-03-16T04:27:49;5.68;;;4.43;;
54823;SDS011;40724;53.196;5.980;2023-03-16T04:30:15;5.95;;;4.15;;
54823;SDS011;40724;53.196;5.980;2023-03-16T04:32:42;7.60;;;4.68;;
54823;SDS011;40724;53.196;5.980;2023-03-16T04:35:08;7.13;;;4.40;;
54823;SDS011;40724;53.196;5.980;2023-03-16T04:37:35;6.90;;;4.05;;
54823;SDS011;40724;53.196;5.980;2023-03-16T04:40:01;6.80;;;4.38;;
54823;SDS011;40724;53.196;5.980;2023-03-16T04:42:39;6.05;;;4.70;;
54823;SDS011;40724;53.196;5.980;2023-03-16T04:45:06;9.57;;;4.50;;
54823;SDS011;40724;53.196;5.980;2023-03-16T04:47:32;8.27;;;4.68;;
54823;SDS011;40724;53.196;5.980;2023-03-16T04:50:02;7.50;;;4.50;;
54823;SDS011;40724;53.196;5.980;2023-03-16T04:52:29;5.22;;;4.40;;
54823;SDS011;40724;53.196;5.980;2023-03-16T04:54:56;7.18;;;5.10;;
54823;SDS011;40724;53.196;5.980;2023-03-16T04:57:22;9.02;;;4.95;;
54823;SDS011;40724;53.196;5.980;2023-03-16T04:59:48;7.53;;;4.55;;
54823;SDS011;40724;53.196;5.980;2023-03-16T05:02:15;8.50;;;4.68;;
54823;SDS011;40724;53.196;5.980;2023-03-16T05:04:42;8.25;;;4.57;;
54823;SDS011;40724;53.196;5.980;2023-03-16T05:07:08;8.20;;;5.15;;
54823;SDS011;40724;53.196;5.980;2023-03-16T05:09:34;6.72;;;4.63;;
54823;SDS011;40724;53.196;5.980;2023-03-16T05:12:00;10.18;;;5.47;;
54823;SDS011;40724;53.196;5.980;2023-03-16T05:14:26;8.68;;;4.72;;
54823;SDS011;40724;53.196;5.980;2023-03-16T05:16:52;12.18;;;5.65;;
54823;SDS011;40724;53.196;5.980;2023-03-16T05:19:18;8.13;;;4.93;;
54823;SDS011;40724;53.196;5.980;2023-03-16T05:21:45;10.20;;;5.72;;
54823;SDS011;40724;53.196;5.980;2023-03-16T05:24:11;7.47;;;6.00;;
54823;SDS011;40724;53.196;5.980;2023-03-16T05:26:37;7.95;;;5.30;;
54823;SDS011;40724;53.196;5.980;2023-03-16T05:29:03;11.05;;;6.13;;
54823;SDS011;40724;53.196;5.980;2023-03-16T05:31:30;10.45;;;5.68;;
54823;SDS011;40724;53.196;5.980;2023-03-16T05:34:00;9.27;;;5.35;;
54823;SDS011;40724;53.196;5.980;2023-03-16T05:36:26;8.70;;;5.85;;
54823;SDS011;40724;53.196;5.980;2023-03-16T05:38:52;8.02;;;5.72;;
54823;SDS011;40724;53.196;5.980;2023-03-16T05:41:19;15.88;;;6.13;;
54823;SDS011;40724;53.196;5.980;2023-03-16T05:43:45;11.57;;;5.72;;
54823;SDS011;40724;53.196;5.980;2023-03-16T05:46:12;8.32;;;5.60;;
54823;SDS011;40724;53.196;5.980;2023-03-16T05:48:38;10.20;;;5.32;;
54823;SDS011;40724;53.196;5.980;2023-03-16T05:51:04;11.10;;;5.35;;
54823;SDS011;40724;53.196;5.980;2023-03-16T05:53:31;9.52;;;5.78;;
54823;SDS011;40724;53.196;5.980;2023-03-16T05:55:57;14.48;;;6.47;;
54823;SDS011;40724;53.196;5.980;2023-03-16T05:58:23;7.43;;;5.63;;
54823;SDS011;40724;53.196;5.980;2023-03-16T06:00:49;12.73;;;6.78;;
54823;SDS011;40724;53.196;5.980;2023-03-16T06:03:15;11.70;;;6.20;;
54823;SDS011;40724;53.196;5.980;2023-03-16T06:05:42;11.15;;;6.03;;
54823;SDS011;40724;53.196;5.980;2023-03-16T06:08:08;11.80;;;6.00;;
54823;SDS011;40724;53.196;5.980;2023-03-16T06:10:35;10.63;;;6.65;;
54823;SDS011;40724;53.196;5.980;2023-03-16T06:13:01;7.97;;;5.97;;
54823;SDS011;40724;53.196;5.980;2023-03-16T06:15:27;8.68;;;5.60;;
54823;SDS011;40724;53.196;5.980;2023-03-16T06:17:54;10.23;;;6.75;;
54823;SDS011;40724;53.196;5.980;2023-03-16T06:20:21;11.88;;;6.57;;
54823;SDS011;40724;53.196;5.980;2023-03-16T06:22:47;9.60;;;6.40;;
54823;SDS011;40724;53.196;5.980;2023-03-16T06:25:13;8.55;;;6.18;;
54823;SDS011;40724;53.196;5.980;2023-03-16T06:27:39;10.77;;;6.75;;
54823;SDS011;40724;53.196;5.980;2023-03-16T06:30:06;7.68;;;5.97;;
54823;SDS011;40724;53.196;5.980;2023-03-16T06:32:33;12.98;;;6.63;;
54823;SDS011;40724;53.196;5.980;2023-03-16T06:35:02;9.75;;;5.70;;
54823;SDS011;40724;53.196;5.980;2023-03-16T06:37:28;12.60;;;7.00;;
54823;SDS011;40724;53.196;5.980;2023-03-16T06:39:55;9.02;;;5.72;;
54823;SDS011;40724;53.196;5.980;2023-03-16T06:42:21;9.45;;;6.78;;
54823;SDS011;40724;53.196;5.980;2023-03-16T06:44:48;10.77;;;6.30;;
54823;SDS011;40724;53.196;5.980;2023-03-16T06:47:14;11.38;;;6.47;;
54823;SDS011;40724;53.196;5.980;2023-03-16T06:49:40;12.40;;;6.85;;
54823;SDS011;40724;53.196;5.980;2023-03-16T06:52:07;10.10;;;6.70;;
54823;SDS011;40724;53.196;5.980;2023-03-16T06:54:34;10.13;;;6.32;;
54823;SDS011;40724;53.196;5.980;2023-03-16T06:57:01;11.13;;;5.88;;
54823;SDS011;40724;53.196;5.980;2023-03-16T06:59:28;11.13;;;6.05;;
54823;SDS011;40724;53.196;5.980;2023-03-16T07:01:54;9.65;;;6.00;;
54823;SDS011;40724;53.196;5.980;2023-03-16T07:04:20;7.65;;;5.03;;
54823;SDS011;40724;53.196;5.980;2023-03-16T07:06:47;9.55;;;6.25;;
54823;SDS011;40724;53.196;5.980;2023-03-16T07:09:13;10.93;;;5.25;;
54823;SDS011;40724;53.196;5.980;2023-03-16T07:11:39;11.30;;;5.35;;
54823;SDS011;40724;53.196;5.980;2023-03-16T07:14:06;10.43;;;6.43;;
54823;SDS011;40724;53.196;5.980;2023-03-16T07:16:32;9.40;;;6.40;;
54823;SDS011;40724;53.196;5.980;2023-03-16T07:18:58;9.23;;;5.57;;
54823;SDS011;40724;53.196;5.980;2023-03-16T07:21:24;7.05;;;5.78;;
54823;SDS011;40724;53.196;5.980;2023-03-16T07:23:50;9.70;;;5.60;;
54823;SDS011;40724;53.196;5.980;2023-03-16T07:26:17;8.48;;;5.63;;
54823;SDS011;40724;53.196;5.980;2023-03-16T07:28:43;12.75;;;5.72;;
54823;SDS011;40724;53.196;5.980;2023-03-16T07:31:09;7.38;;;5.15;;
54823;SDS011;40724;53.196;5.980;2023-03-16T07:33:37;10.45;;;6.10;;
54823;SDS011;40724;53.196;5.980;2023-03-16T07:36:04;5.93;;;4.55;;
54823;SDS011;40724;53.196;5.980;2023-03-16T07:38:30;8.38;;;6.38;;
54823;SDS011;40724;53.196;5.980;2023-03-16T07:41:00;6.63;;;4.97;;
54823;SDS011;40724;53.196;5.980;2023-03-16T07:43:26;9.07;;;5.50;;
54823;SDS011;40724;53.196;5.980;2023-03-16T07:45:53;8.48;;;5.68;;
54823;SDS011;40724;53.196;5.980;2023-03-16T07:48:19;10.77;;;6.05;;
54823;SDS011;40724;53.196;5.980;2023-03-16T07:50:47;8.43;;;5.05;;
54823;SDS011;40724;53.196;5.980;2023-03-16T07:53:13;8.07;;;5.30;;
54823;SDS011;40724;53.196;5.980;2023-03-16T07:55:40;11.75;;;5.50;;
54823;SDS011;40724;53.196;5.980;2023-03-16T07:58:07;10.35;;;5.70;;
54823;SDS011;40724;53.196;5.980;2023-03-16T08:00:34;10.50;;;5.50;;
54823;SDS011;40724;53.196;5.980;2023-03-16T08:03:00;7.70;;;4.93;;
54823;SDS011;40724;53.196;5.980;2023-03-16T08:05:26;7.00;;;4.45;;
54823;SDS011;40724;53.196;5.980;2023-03-16T08:07:53;8.77;;;5.63;;
54823;SDS011;40724;53.196;5.980;2023-03-16T08:10:21;6.38;;;4.40;;
54823;SDS011;40724;53.196;5.980;2023-03-16T08:12:47;8.02;;;5.30;;
54823;SDS011;40724;53.196;5.980;2023-03-16T08:15:13;9.00;;;5.88;;
54823;SDS011;40724;53.196;5.980;2023-03-16T08:17:40;11.02;;;5.10;;
54823;SDS011;40724;53.196;5.980;2023-03-16T08:20:06;8.15;;;5.22;;
54823;SDS011;40724;53.196;5.980;2023-03-16T08:22:35;7.82;;;4.32;;
54823;SDS011;40724;53.196;5.980;2023-03-16T08:25:02;12.30;;;4.68;;
54823;SDS011;40724;53.196;5.980;2023-03-16T08:27:28;7.75;;;5.05;;
54823;SDS011;40724;53.196;5.980;2023-03-16T08:29:55;9.55;;;5.55;;
54823;SDS011;40724;53.196;5.980;2023-03-16T08:32:21;8.73;;;5.07;;
54823;SDS011;40724;53.196;5.980;2023-03-16T08:34:47;8.13;;;4.70;;
54823;SDS011;40724;53.196;5.980;2023-03-16T08:37:14;8.43;;;4.97;;
54823;SDS011;40724;53.196;5.980;2023-03-16T08:39:40;8.68;;;5.70;;
54823;SDS011;40724;53.196;5.980;2023-03-16T08:42:08;9.10;;;5.55;;
54823;SDS011;40724;53.196;5.980;2023-03-16T08:44:34;7.35;;;5.03;;
54823;SDS011;40724;53.196;5.980;2023-03-16T08:47:01;8.98;;;5.60;;
54823;SDS011;40724;53.196;5.980;2023-03-16T08:49:29;10.55;;;5.60;;
54823;SDS011;40724;53.196;5.980;2023-03-16T08:51:55;6.07;;;4.50;;
54823;SDS011;40724;53.196;5.980;2023-03-16T08:54:21;8.68;;;5.05;;
54823;SDS011;40724;53.196;5.980;2023-03-16T08:56:47;6.57;;;4.28;;
54823;SDS011;40724;53.196;5.980;2023-03-16T08:59:15;9.55;;;5.65;;
54823;SDS011;40724;53.196;5.980;2023-03-16T09:01:42;6.90;;;4.57;;
54823;SDS011;40724;53.196;5.980;2023-03-16T09:04:08;8.25;;;5.43;;
54823;SDS011;40724;53.196;5.980;2023-03-16T09:06:35;6.97;;;4.93;;
54823;SDS011;40724;53.196;5.980;2023-03-16T09:09:02;11.80;;;5.78;;
54823;SDS011;40724;53.196;5.980;2023-03-16T09:11:28;8.20;;;4.70;;
54823;SDS011;40724;53.196;5.980;2023-03-16T09:13:58;9.15;;;4.97;;
54823;SDS011;40724;53.196;5.980;2023-03-16T09:16:24;7.47;;;5.13;;
54823;SDS011;40724;53.196;5.980;2023-03-16T09:18:51;7.32;;;4.95;;
54823;SDS011;40724;53.196;5.980;2023-03-16T09:21:17;7.20;;;4.45;;
54823;SDS011;40724;53.196;5.980;2023-03-16T09:23:44;9.82;;;5.15;;
54823;SDS011;40724;53.196;5.980;2023-03-16T09:26:10;9.82;;;4.53;;
54823;SDS011;40724;53.196;5.980;2023-03-16T09:28:37;6.20;;;4.53;;
54823;SDS011;40724;53.196;5.980;2023-03-16T09:31:06;10.65;;;4.93;;
54823;SDS011;40724;53.196;5.980;2023-03-16T09:33:33;6.50;;;4.65;;
54823;SDS011;40724;53.196;5.980;2023-03-16T09:36:00;9.90;;;4.25;;
54823;SDS011;40724;53.196;5.980;2023-03-16T09:38:27;6.63;;;4.15;;
54823;SDS011;40724;53.196;5.980;2023-03-16T09:48:18;12.75;;;5.07;;
54823;SDS011;40724;53.196;5.980;2023-03-16T09:50:45;7.63;;;4.63;;
54823;SDS011;40724;53.196;5.980;2023-03-16T09:55:50;8.55;;;4.32;;
54823;SDS011;40724;53.196;5.980;2023-03-16T09:58:19;14.07;;;5.80;;
54823;SDS011;40724;53.196;5.980;2023-03-16T10:03:35;8.30;;;3.97;;
54823;SDS011;40724;53.196;5.980;2023-03-16T10:06:08;8.23;;;4.38;;
54823;SDS011;40724;53.196;5.980;2023-03-16T10:08:38;7.72;;;4.70;;
54823;SDS011;40724;53.196;5.980;2023-03-16T10:13:35;9.82;;;4.28;;
54823;SDS011;40724;53.196;5.980;2023-03-16T10:16:07;7.32;;;3.50;;
54823;SDS011;40724;53.196;5.980;2023-03-16T10:18:37;7.13;;;3.77;;
54823;SDS011;40724;53.196;5.980;2023-03-16T10:21:04;6.22;;;3.97;;
54823;SDS011;40724;53.196;5.980;2023-03-16T10:23:34;5.63;;;3.47;;
54823;SDS011;40724;53.196;5.980;2023-03-16T10:26:01;7.95;;;4.28;;
54823;SDS011;40724;53.196;5.980;2023-03-16T10:28:31;8.98;;;3.78;;
54823;SDS011;40724;53.196;5.980;2023-03-16T10:30:58;5.63;;;4.03;;
54823;SDS011;40724;53.196;5.980;2023-03-16T10:33:29;6.85;;;3.85;;
54823;SDS011;40724;53.196;5.980;2023-03-16T10:43:43;6.25;;;4.35;;
54823;SDS011;40724;53.196;5.980;2023-03-16T10:46:10;7.13;;;3.63;;
54823;SDS011;40724;53.196;5.980;2023-03-16T10:48:37;7.50;;;3.45;;
54823;SDS011;40724;53.196;5.980;2023-03-16T10:51:09;8.98;;;4.05;;
54823;SDS011;40724;53.196;5.980;2023-03-16T10:53:37;6.93;;;4.75;;
54823;SDS011;40724;53.196;5.980;2023-03-16T10:56:12;7.47;;;4.13;;
54823;SDS011;40724;53.196;5.980;2023-03-16T10:58:39;6.78;;;3.60;;
54823;SDS011;40724;53.196;5.980;2023-03-16T11:01:10;8.45;;;4.40;;
54823;SDS011;40724;53.196;5.980;2023-03-16T11:03:38;5.63;;;3.53;;
54823;SDS011;40724;53.196;5.980;2023-03-16T11:06:06;7.53;;;3.83;;
54823;SDS011;40724;53.196;5.980;2023-03-16T11:08:42;5.43;;;3.45;;
54823;SDS011;40724;53.196;5.980;2023-03-16T11:11:51;6.72;;;3.95;;
54823;SDS011;40724;53.196;5.980;2023-03-16T11:14:00;5.45;;;4.03;;
54823;SDS011;40724;53.196;5.980;2023-03-16T11:16:30;7.20;;;3.72;;
54823;SDS011;40724;53.196;5.980;2023-03-16T11:19:34;6.13;;;3.75;;
54823;SDS011;40724;53.196;5.980;2023-03-16T11:22:12;6.25;;;3.40;;
54823;SDS011;40724;53.196;5.980;2023-03-16T11:24:51;7.28;;;4.30;;
54823;SDS011;40724;53.196;5.980;2023-03-16T11:27:39;5.75;;;3.63;;
54823;SDS011;40724;53.196;5.980;2023-03-16T11:30:41;8.10;;;3.50;;
54823;SDS011;40724;53.196;5.980;2023-03-16T11:33:14;6.72;;;3.67;;
54823;SDS011;40724;53.196;5.980;2023-03-16T11:35:50;7.07;;;3.60;;
54823;SDS011;40724;53.196;5.980;2023-03-16T11:38:19;7.97;;;4.50;;
54823;SDS011;40724;53.196;5.980;2023-03-16T11:40:57;5.85;;;3.80;;
54823;SDS011;40724;53.196;5.980;2023-03-16T11:51:43;6.80;;;3.80;;
54823;SDS011;40724;53.196;5.980;2023-03-16T11:57:02;7.38;;;4.25;;
54823;SDS011;40724;53.196;5.980;2023-03-16T12:02:25;7.38;;;4.05;;
54823;SDS011;40724;53.196;5.980;2023-03-16T12:05:07;6.78;;;4.50;;
54823;SDS011;40724;53.196;5.980;2023-03-16T12:17:28;5.18;;;3.83;;
54823;SDS011;40724;53.196;5.980;2023-03-16T12:24:53;9.00;;;4.72;;
54823;SDS011;40724;53.196;5.980;2023-03-16T12:27:24;6.07;;;3.75;;
54823;SDS011;40724;53.196;5.980;2023-03-16T12:29:54;7.13;;;3.47;;
54823;SDS011;40724;53.196;5.980;2023-03-16T12:32:33;9.03;;;4.27;;
54823;SDS011;40724;53.196;5.980;2023-03-16T12:40:30;9.00;;;4.10;;
54823;SDS011;40724;53.196;5.980;2023-03-16T12:42:59;8.45;;;4.18;;
54823;SDS011;40724;53.196;5.980;2023-03-16T12:48:19;5.53;;;4.20;;
54823;SDS011;40724;53.196;5.980;2023-03-16T12:50:53;7.45;;;4.25;;
54823;SDS011;40724;53.196;5.980;2023-03-16T12:56:05;6.07;;;3.83;;
54823;SDS011;40724;53.196;5.980;2023-03-16T12:58:34;5.90;;;4.10;;
54823;SDS011;40724;53.196;5.980;2023-03-16T13:01:01;9.02;;;3.97;;
54823;SDS011;40724;53.196;5.980;2023-03-16T13:03:27;7.82;;;4.60;;
54823;SDS011;40724;53.196;5.980;2023-03-16T13:05:57;5.00;;;3.35;;
54823;SDS011;40724;53.196;5.980;2023-03-16T13:08:24;8.93;;;4.45;;
54823;SDS011;40724;53.196;5.980;2023-03-16T13:10:59;7.28;;;4.30;;
54823;SDS011;40724;53.196;5.980;2023-03-16T13:13:25;5.55;;;3.63;;
54823;SDS011;40724;53.196;5.980;2023-03-16T13:16:00;6.50;;;4.40;;
54823;SDS011;40724;53.196;5.980;2023-03-16T13:18:37;7.82;;;4.03;;
54823;SDS011;40724;53.196;5.980;2023-03-16T13:21:16;11.13;;;5.07;;
54823;SDS011;40724;53.196;5.980;2023-03-16T13:23:56;6.32;;;3.47;;
54823;SDS011;40724;53.196;5.980;2023-03-16T13:28:57;5.88;;;3.50;;
54823;SDS011;40724;53.196;5.980;2023-03-16T13:31:24;5.03;;;3.88;;
54823;SDS011;40724;53.196;5.980;2023-03-16T13:33:55;8.40;;;3.55;;
54823;SDS011;40724;53.196;5.980;2023-03-16T13:36:24;5.03;;;3.03;;
54823;SDS011;40724;53.196;5.980;2023-03-16T13:41:29;6.82;;;3.97;;
54823;SDS011;40724;53.196;5.980;2023-03-16T13:43:55;8.85;;;3.97;;
54823;SDS011;40724;53.196;5.980;2023-03-16T13:46:26;9.82;;;4.53;;
54823;SDS011;40724;53.196;5.980;2023-03-16T13:48:53;6.15;;;4.28;;
54823;SDS011;40724;53.196;5.980;2023-03-16T13:51:22;7.88;;;4.68;;
54823;SDS011;40724;53.196;5.980;2023-03-16T13:53:48;8.75;;;4.57;;
54823;SDS011;40724;53.196;5.980;2023-03-16T13:56:16;6.25;;;3.72;;
54823;SDS011;40724;53.196;5.980;2023-03-16T13:58:44;6.53;;;4.63;;
54823;SDS011;40724;53.196;5.980;2023-03-16T14:01:18;5.85;;;3.83;;
54823;SDS011;40724;53.196;5.980;2023-03-16T14:03:49;8.18;;;3.85;;
54823;SDS011;40724;53.196;5.980;2023-03-16T14:06:25;7.90;;;4.30;;
54823;SDS011;40724;53.196;5.980;2023-03-16T14:08:54;4.72;;;3.80;;
54823;SDS011;40724;53.196;5.980;2023-03-16T14:11:22;8.55;;;4.22;;
54823;SDS011;40724;53.196;5.980;2023-03-16T14:13:49;9.98;;;4.20;;
54823;SDS011;40724;53.196;5.980;2023-03-16T14:16:18;6.43;;;3.97;;
54823;SDS011;40724;53.196;5.980;2023-03-16T14:18:45;6.32;;;3.75;;
54823;SDS011;40724;53.196;5.980;2023-03-16T14:21:16;7.65;;;3.97;;
54823;SDS011;40724;53.196;5.980;2023-03-16T14:23:43;5.60;;;4.05;;
54823;SDS011;40724;53.196;5.980;2023-03-16T14:26:14;7.97;;;4.03;;
54823;SDS011;40724;53.196;5.980;2023-03-16T14:28:41;7.20;;;4.30;;
54823;SDS011;40724;53.196;5.980;2023-03-16T14:31:18;7.72;;;3.92;;
54823;SDS011;40724;53.196;5.980;2023-03-16T14:33:45;7.15;;;4.70;;
54823;SDS011;40724;53.196;5.980;2023-03-16T14:36:13;8.00;;;4.95;;
54823;SDS011;40724;53.196;5.980;2023-03-16T14:38:40;9.40;;;4.47;;
54823;SDS011;40724;53.196;5.980;2023-03-16T14:43:37;7.15;;;3.88;;
54823;SDS011;40724;53.196;5.980;2023-03-16T14:46:05;6.35;;;4.00;;
54823;SDS011;40724;53.196;5.980;2023-03-16T14:48:33;8.40;;;4.85;;
54823;SDS011;40724;53.196;5.980;2023-03-16T14:51:00;6.97;;;3.85;;
54823;SDS011;40724;53.196;5.980;2023-03-16T14:53:27;8.35;;;4.60;;
54823;SDS011;40724;53.196;5.980;2023-03-16T14:55:54;8.85;;;4.03;;
54823;SDS011;40724;53.196;5.980;2023-03-16T14:58:21;9.50;;;4.63;;
54823;SDS011;40724;53.196;5.980;2023-03-16T15:00:47;7.03;;;4.13;;
54823;SDS011;40724;53.196;5.980;2023-03-16T15:03:16;7.72;;;4.18;;
54823;SDS011;40724;53.196;5.980;2023-03-16T15:05:45;6.45;;;3.58;;
54823;SDS011;40724;53.196;5.980;2023-03-16T15:08:15;9.10;;;5.22;;
54823;SDS011;40724;53.196;5.980;2023-03-16T15:10:43;6.72;;;3.63;;
54823;SDS011;40724;53.196;5.980;2023-03-16T15:13:11;8.23;;;4.90;;
54823;SDS011;40724;53.196;5.980;2023-03-16T15:15:38;6.32;;;4.13;;
54823;SDS011;40724;53.196;5.980;2023-03-16T15:18:06;8.85;;;4.00;;
54823;SDS011;40724;53.196;5.980;2023-03-16T15:20:35;6.18;;;4.28;;
54823;SDS011;40724;53.196;5.980;2023-03-16T15:23:03;7.97;;;4.68;;
54823;SDS011;40724;53.196;5.980;2023-03-16T15:25:34;7.72;;;4.53;;
54823;SDS011;40724;53.196;5.980;2023-03-16T15:28:02;8.00;;;3.85;;
54823;SDS011;40724;53.196;5.980;2023-03-16T15:30:29;7.55;;;4.70;;
54823;SDS011;40724;53.196;5.980;2023-03-16T15:32:56;6.60;;;4.55;;
54823;SDS011;40724;53.196;5.980;2023-03-16T15:35:22;10.63;;;4.82;;
54823;SDS011;40724;53.196;5.980;2023-03-16T15:37:48;7.35;;;4.68;;
54823;SDS011;40724;53.196;5.980;2023-03-16T15:40:15;7.80;;;3.78;;
54823;SDS011;40724;53.196;5.980;2023-03-16T15:42:42;6.60;;;4.15;;
54823;SDS011;40724;53.196;5.980;2023-03-16T15:45:12;6.30;;;4.18;;
54823;SDS011;40724;53.196;5.980;2023-03-16T15:47:39;5.32;;;4.00;;
54823;SDS011;40724;53.196;5.980;2023-03-16T15:50:07;9.23;;;4.43;;
54823;SDS011;40724;53.196;5.980;2023-03-16T15:52:34;7.82;;;4.05;;
54823;SDS011;40724;53.196;5.980;2023-03-16T15:55:02;7.55;;;4.13;;
54823;SDS011;40724;53.196;5.980;2023-03-16T15:57:31;7.75;;;4.40;;
54823;SDS011;40724;53.196;5.980;2023-03-16T15:59:58;6.45;;;3.92;;
54823;SDS011;40724;53.196;5.980;2023-03-16T16:02:25;7.53;;;4.07;;
54823;SDS011;40724;53.196;5.980;2023-03-16T16:04:52;4.80;;;3.60;;
54823;SDS011;40724;53.196;5.980;2023-03-16T16:07:19;7.13;;;3.70;;
54823;SDS011;40724;53.196;5.980;2023-03-16T16:09:45;6.30;;;4.00;;
54823;SDS011;40724;53.196;5.980;2023-03-16T16:12:11;8.52;;;4.05;;
54823;SDS011;40724;53.196;5.980;2023-03-16T16:14:39;7.30;;;3.70;;